North Hills, NC

6:23 AM EDT on September 04, 2015 (GMT -0400)
Salem's Eastgate WX | | Change Station
CLOSE
Current Station
Personal Weather Station
Location: Raleigh, NC
Elevation: 318 ft
Nearby Weather Stations

Elev 318 ft 35.84 °N, 78.62 °W | Updated 10 seconds ago

Clear
Clear
70.9 °F
Feels Like 70.9 °F
N
0.0
Wind Variable Wind from NW
Gusts 0.0 mph

Today
High -- | Low -- °F
--% Chance of Precip.
Yesterday
High -- | Low -- °F
Precip. -- in
6:48 AM 7:38 PM
Waning Gibbous, 61% visible
Pressure 29.93 in
Visibility 5.0 miles
Clouds Few 5000 ft
Dew Point Not available.
Humidity Not available.
Rainfall 0.00 in
Snow Depth Not available.
UV 0 out of 12
Pollen 8.40 out of 12
Air Quality Not available.
Flu Activity Not available.
METAR KRDU 040951Z 00000KT 5SM BR FEW050 22/20 A2995 RMK AO2 SLP135 T02170200 $
Pressure 29.93 in
Visibility 5.0 miles
Clouds Few 5000 ft
Dew Point Not available.
Humidity Not available.
Rainfall 0.00 in
Snow Depth Not available.
UV 0 out of 12
Pollen 8.40 out of 12
Air Quality Not available.
Flu Activity Not available.
METAR KRDU 040951Z 00000KT 5SM BR FEW050 22/20 A2995 RMK AO2 SLP135 T02170200 $

10-Day Weather Forecast

×

Almanac

Astronomy

Sep. 04, 2015 Rise Set
Actual Time
Civil Twilight
Nautical Twilight
Astronomical Twilight
Moon
Length of Visible Light
Length of Day
Tomorrow will be .
, % of the Moon is Illuminated

Today's Extremes

State Highs State Lows

Community

WunderPhotos

Upload Photos

1,852,146 photos uploaded!

WunderBlogs® & News

Nearby

Air Quality

  Air Quality AQ Index Pollutant
Not available.

Snow Depth

Station Depth Elevation

Earthquake Activity

City Distance Mag. Time & Date
Minimum magnitude displayed is 2.5.

Coastal Water Temperatures

Place Temperature

Stations

Nearby Weather Stations

Station Location Temp. Windchill Dew Point Humidity Wind Precip. Elev Updated Type